sensor_id;sensor_type;location;lat;lon;timestamp;P1;durP1;ratioP1;P2;durP2;ratioP2
57790;SDS011;43621;51.798;21.588;2023-02-11T00:00:06;56.40;;;23.10;;
57790;SDS011;43621;51.798;21.588;2023-02-11T00:04:29;56.00;;;24.70;;
57790;SDS011;43621;51.798;21.588;2023-02-11T00:08:31;49.30;;;21.90;;
57790;SDS011;43621;51.798;21.588;2023-02-11T00:12:34;49.50;;;20.70;;
57790;SDS011;43621;51.798;21.588;2023-02-11T00:16:37;44.40;;;20.70;;
57790;SDS011;43621;51.798;21.588;2023-02-11T00:20:39;56.50;;;22.40;;
57790;SDS011;43621;51.798;21.588;2023-02-11T00:24:41;47.90;;;21.20;;
57790;SDS011;43621;51.798;21.588;2023-02-11T00:28:44;50.20;;;20.70;;
57790;SDS011;43621;51.798;21.588;2023-02-11T00:32:46;49.80;;;20.80;;
57790;SDS011;43621;51.798;21.588;2023-02-11T00:36:48;46.10;;;20.50;;
57790;SDS011;43621;51.798;21.588;2023-02-11T00:40:50;44.60;;;20.40;;
57790;SDS011;43621;51.798;21.588;2023-02-11T00:44:52;46.00;;;18.70;;
57790;SDS011;43621;51.798;21.588;2023-02-11T00:48:54;41.00;;;17.10;;
57790;SDS011;43621;51.798;21.588;2023-02-11T00:52:58;45.30;;;20.00;;
57790;SDS011;43621;51.798;21.588;2023-02-11T00:57:00;39.70;;;18.30;;
57790;SDS011;43621;51.798;21.588;2023-02-11T01:01:02;53.30;;;19.90;;
57790;SDS011;43621;51.798;21.588;2023-02-11T01:05:05;38.20;;;15.30;;
57790;SDS011;43621;51.798;21.588;2023-02-11T01:09:07;39.00;;;15.60;;
57790;SDS011;43621;51.798;21.588;2023-02-11T01:13:09;40.80;;;14.60;;
57790;SDS011;43621;51.798;21.588;2023-02-11T01:17:12;36.90;;;16.60;;
57790;SDS011;43621;51.798;21.588;2023-02-11T01:25:36;42.20;;;16.40;;
57790;SDS011;43621;51.798;21.588;2023-02-11T01:29:38;44.50;;;17.10;;
57790;SDS011;43621;51.798;21.588;2023-02-11T01:33:40;31.80;;;14.70;;
57790;SDS011;43621;51.798;21.588;2023-02-11T01:37:42;36.80;;;15.30;;
57790;SDS011;43621;51.798;21.588;2023-02-11T01:41:43;30.30;;;12.10;;
57790;SDS011;43621;51.798;21.588;2023-02-11T01:49:51;30.50;;;13.50;;
57790;SDS011;43621;51.798;21.588;2023-02-11T01:53:57;30.90;;;13.70;;
57790;SDS011;43621;51.798;21.588;2023-02-11T01:58:19;32.10;;;12.60;;
57790;SDS011;43621;51.798;21.588;2023-02-11T02:02:24;38.30;;;14.30;;
57790;SDS011;43621;51.798;21.588;2023-02-11T02:06:43;27.90;;;12.10;;
57790;SDS011;43621;51.798;21.588;2023-02-11T02:10:51;28.80;;;13.40;;
57790;SDS011;43621;51.798;21.588;2023-02-11T02:36:47;33.80;;;13.10;;
57790;SDS011;43621;51.798;21.588;2023-02-11T02:45:07;26.80;;;12.40;;
57790;SDS011;43621;51.798;21.588;2023-02-11T02:49:12;25.70;;;11.10;;
57790;SDS011;43621;51.798;21.588;2023-02-11T02:53:27;26.00;;;11.30;;
57790;SDS011;43621;51.798;21.588;2023-02-11T03:06:37;27.60;;;11.10;;
57790;SDS011;43621;51.798;21.588;2023-02-11T03:10:49;24.50;;;11.20;;
57790;SDS011;43621;51.798;21.588;2023-02-11T03:14:54;27.80;;;10.50;;
57790;SDS011;43621;51.798;21.588;2023-02-11T03:18:57;20.10;;;10.60;;
57790;SDS011;43621;51.798;21.588;2023-02-11T03:27:20;23.80;;;9.80;;
57790;SDS011;43621;51.798;21.588;2023-02-11T03:31:36;24.80;;;10.00;;
57790;SDS011;43621;51.798;21.588;2023-02-11T03:36:08;20.70;;;9.20;;
57790;SDS011;43621;51.798;21.588;2023-02-11T03:40:18;24.00;;;9.50;;
57790;SDS011;43621;51.798;21.588;2023-02-11T03:44:24;17.90;;;8.70;;
57790;SDS011;43621;51.798;21.588;2023-02-11T03:48:31;23.20;;;10.00;;
57790;SDS011;43621;51.798;21.588;2023-02-11T03:52:37;22.90;;;10.40;;
57790;SDS011;43621;51.798;21.588;2023-02-11T03:56:42;20.90;;;8.30;;
57790;SDS011;43621;51.798;21.588;2023-02-11T04:00:50;21.00;;;9.30;;
57790;SDS011;43621;51.798;21.588;2023-02-11T04:04:52;17.80;;;9.20;;
57790;SDS011;43621;51.798;21.588;2023-02-11T04:08:54;18.90;;;8.20;;
57790;SDS011;43621;51.798;21.588;2023-02-11T04:12:56;22.10;;;9.60;;
57790;SDS011;43621;51.798;21.588;2023-02-11T04:16:58;26.90;;;9.80;;
57790;SDS011;43621;51.798;21.588;2023-02-11T04:21:00;20.10;;;8.60;;
57790;SDS011;43621;51.798;21.588;2023-02-11T04:25:02;24.00;;;9.40;;
57790;SDS011;43621;51.798;21.588;2023-02-11T04:29:05;22.60;;;7.90;;
57790;SDS011;43621;51.798;21.588;2023-02-11T04:33:07;23.60;;;8.60;;
57790;SDS011;43621;51.798;21.588;2023-02-11T04:37:09;17.50;;;8.10;;
57790;SDS011;43621;51.798;21.588;2023-02-11T04:41:11;20.50;;;8.40;;
57790;SDS011;43621;51.798;21.588;2023-02-11T04:45:12;20.00;;;8.40;;
57790;SDS011;43621;51.798;21.588;2023-02-11T04:49:15;18.90;;;8.80;;
57790;SDS011;43621;51.798;21.588;2023-02-11T04:53:17;24.10;;;8.20;;
57790;SDS011;43621;51.798;21.588;2023-02-11T04:57:19;29.70;;;9.60;;
57790;SDS011;43621;51.798;21.588;2023-02-11T05:01:21;20.50;;;8.70;;
57790;SDS011;43621;51.798;21.588;2023-02-11T05:05:23;24.30;;;9.90;;
57790;SDS011;43621;51.798;21.588;2023-02-11T05:09:25;17.20;;;7.70;;
57790;SDS011;43621;51.798;21.588;2023-02-11T05:13:27;21.60;;;8.60;;
57790;SDS011;43621;51.798;21.588;2023-02-11T05:17:30;23.80;;;10.20;;
57790;SDS011;43621;51.798;21.588;2023-02-11T05:21:32;26.90;;;11.30;;
57790;SDS011;43621;51.798;21.588;2023-02-11T05:25:34;25.80;;;11.20;;
57790;SDS011;43621;51.798;21.588;2023-02-11T05:29:36;25.20;;;11.40;;
57790;SDS011;43621;51.798;21.588;2023-02-11T05:33:38;29.30;;;12.80;;
57790;SDS011;43621;51.798;21.588;2023-02-11T05:37:41;29.70;;;13.40;;
57790;SDS011;43621;51.798;21.588;2023-02-11T05:41:42;29.30;;;12.50;;
57790;SDS011;43621;51.798;21.588;2023-02-11T05:45:44;31.00;;;12.40;;
57790;SDS011;43621;51.798;21.588;2023-02-11T05:49:46;25.50;;;11.70;;
57790;SDS011;43621;51.798;21.588;2023-02-11T05:53:48;30.50;;;13.90;;
57790;SDS011;43621;51.798;21.588;2023-02-11T05:57:50;27.50;;;12.80;;
57790;SDS011;43621;51.798;21.588;2023-02-11T06:01:52;27.90;;;13.30;;
57790;SDS011;43621;51.798;21.588;2023-02-11T06:05:54;29.30;;;13.40;;
57790;SDS011;43621;51.798;21.588;2023-02-11T06:09:56;28.90;;;13.00;;
57790;SDS011;43621;51.798;21.588;2023-02-11T06:13:58;37.40;;;15.90;;
57790;SDS011;43621;51.798;21.588;2023-02-11T06:17:59;31.10;;;16.30;;
57790;SDS011;43621;51.798;21.588;2023-02-11T06:22:01;36.70;;;15.00;;
57790;SDS011;43621;51.798;21.588;2023-02-11T06:26:04;33.90;;;16.20;;
57790;SDS011;43621;51.798;21.588;2023-02-11T06:30:08;35.30;;;16.40;;
57790;SDS011;43621;51.798;21.588;2023-02-11T06:34:11;34.30;;;14.90;;
57790;SDS011;43621;51.798;21.588;2023-02-11T06:38:12;38.30;;;17.60;;
57790;SDS011;43621;51.798;21.588;2023-02-11T06:42:14;38.10;;;17.90;;
57790;SDS011;43621;51.798;21.588;2023-02-11T06:46:16;26.90;;;14.30;;
57790;SDS011;43621;51.798;21.588;2023-02-11T06:50:18;33.30;;;16.60;;
57790;SDS011;43621;51.798;21.588;2023-02-11T06:54:20;30.20;;;15.40;;
57790;SDS011;43621;51.798;21.588;2023-02-11T06:58:22;37.00;;;18.20;;
57790;SDS011;43621;51.798;21.588;2023-02-11T07:02:24;40.20;;;18.70;;
57790;SDS011;43621;51.798;21.588;2023-02-11T07:06:26;39.30;;;17.20;;
57790;SDS011;43621;51.798;21.588;2023-02-11T07:10:28;33.00;;;18.00;;
57790;SDS011;43621;51.798;21.588;2023-02-11T07:14:30;42.50;;;20.60;;
57790;SDS011;43621;51.798;21.588;2023-02-11T07:18:32;42.90;;;18.60;;
57790;SDS011;43621;51.798;21.588;2023-02-11T07:22:34;38.10;;;17.80;;
57790;SDS011;43621;51.798;21.588;2023-02-11T07:26:36;42.80;;;21.90;;
57790;SDS011;43621;51.798;21.588;2023-02-11T07:30:38;37.40;;;19.30;;
57790;SDS011;43621;51.798;21.588;2023-02-11T07:34:40;36.30;;;18.40;;
57790;SDS011;43621;51.798;21.588;2023-02-11T07:38:42;36.70;;;20.10;;
57790;SDS011;43621;51.798;21.588;2023-02-11T07:42:44;37.90;;;20.20;;
57790;SDS011;43621;51.798;21.588;2023-02-11T07:46:46;35.50;;;19.00;;
57790;SDS011;43621;51.798;21.588;2023-02-11T07:50:49;36.30;;;19.90;;
57790;SDS011;43621;51.798;21.588;2023-02-11T07:54:51;34.80;;;19.00;;
57790;SDS011;43621;51.798;21.588;2023-02-11T07:58:53;39.50;;;19.00;;
57790;SDS011;43621;51.798;21.588;2023-02-11T08:02:57;49.80;;;22.90;;
57790;SDS011;43621;51.798;21.588;2023-02-11T08:06:59;38.60;;;20.30;;
57790;SDS011;43621;51.798;21.588;2023-02-11T08:11:07;45.00;;;23.00;;
57790;SDS011;43621;51.798;21.588;2023-02-11T08:15:10;46.90;;;22.90;;
57790;SDS011;43621;51.798;21.588;2023-02-11T08:19:13;43.20;;;22.40;;
57790;SDS011;43621;51.798;21.588;2023-02-11T08:23:16;42.20;;;21.30;;
57790;SDS011;43621;51.798;21.588;2023-02-11T08:27:18;39.90;;;19.70;;
57790;SDS011;43621;51.798;21.588;2023-02-11T08:31:21;44.20;;;21.10;;
57790;SDS011;43621;51.798;21.588;2023-02-11T08:35:27;41.90;;;20.90;;
57790;SDS011;43621;51.798;21.588;2023-02-11T08:39:29;48.20;;;22.00;;
57790;SDS011;43621;51.798;21.588;2023-02-11T08:43:31;47.60;;;23.80;;
57790;SDS011;43621;51.798;21.588;2023-02-11T08:47:33;45.20;;;21.90;;
57790;SDS011;43621;51.798;21.588;2023-02-11T08:51:35;47.00;;;23.10;;
57790;SDS011;43621;51.798;21.588;2023-02-11T08:55:37;55.90;;;26.20;;
57790;SDS011;43621;51.798;21.588;2023-02-11T08:59:39;73.00;;;33.60;;
57790;SDS011;43621;51.798;21.588;2023-02-11T09:03:41;45.10;;;22.70;;
57790;SDS011;43621;51.798;21.588;2023-02-11T09:07:43;44.70;;;22.50;;
57790;SDS011;43621;51.798;21.588;2023-02-11T09:11:45;43.80;;;22.20;;
57790;SDS011;43621;51.798;21.588;2023-02-11T09:15:48;49.60;;;23.30;;
57790;SDS011;43621;51.798;21.588;2023-02-11T09:19:50;43.80;;;22.90;;
57790;SDS011;43621;51.798;21.588;2023-02-11T09:23:52;45.20;;;23.00;;
57790;SDS011;43621;51.798;21.588;2023-02-11T09:27:54;47.90;;;23.50;;
57790;SDS011;43621;51.798;21.588;2023-02-11T09:31:56;47.40;;;25.60;;
57790;SDS011;43621;51.798;21.588;2023-02-11T09:36:02;46.20;;;23.10;;
57790;SDS011;43621;51.798;21.588;2023-02-11T09:40:08;45.40;;;22.00;;
57790;SDS011;43621;51.798;21.588;2023-02-11T09:44:17;58.80;;;32.00;;
57790;SDS011;43621;51.798;21.588;2023-02-11T09:48:22;41.60;;;21.60;;
57790;SDS011;43621;51.798;21.588;2023-02-11T09:56:26;56.60;;;29.80;;
57790;SDS011;43621;51.798;21.588;2023-02-11T10:01:12;57.80;;;32.20;;
57790;SDS011;43621;51.798;21.588;2023-02-11T10:09:19;53.20;;;24.10;;
57790;SDS011;43621;51.798;21.588;2023-02-11T10:26:37;37.70;;;20.30;;
57790;SDS011;43621;51.798;21.588;2023-02-11T10:30:42;49.70;;;25.10;;
57790;SDS011;43621;51.798;21.588;2023-02-11T10:34:54;56.70;;;27.10;;
57790;SDS011;43621;51.798;21.588;2023-02-11T10:39:01;47.90;;;23.10;;
57790;SDS011;43621;51.798;21.588;2023-02-11T10:43:14;49.80;;;23.60;;
57790;SDS011;43621;51.798;21.588;2023-02-11T10:47:19;45.60;;;24.00;;
57790;SDS011;43621;51.798;21.588;2023-02-11T10:51:25;43.30;;;23.40;;
57790;SDS011;43621;51.798;21.588;2023-02-11T10:55:29;52.00;;;26.60;;
57790;SDS011;43621;51.798;21.588;2023-02-11T10:59:34;44.00;;;28.10;;
57790;SDS011;43621;51.798;21.588;2023-02-11T11:03:47;46.20;;;25.80;;
57790;SDS011;43621;51.798;21.588;2023-02-11T11:08:05;45.10;;;28.90;;
57790;SDS011;43621;51.798;21.588;2023-02-11T11:12:26;41.10;;;21.60;;
57790;SDS011;43621;51.798;21.588;2023-02-11T11:16:38;40.30;;;22.20;;
57790;SDS011;43621;51.798;21.588;2023-02-11T11:21:00;39.80;;;20.70;;
57790;SDS011;43621;51.798;21.588;2023-02-11T11:25:27;37.30;;;20.10;;
57790;SDS011;43621;51.798;21.588;2023-02-11T11:33:32;39.70;;;19.80;;
57790;SDS011;43621;51.798;21.588;2023-02-11T11:37:36;34.10;;;18.60;;
57790;SDS011;43621;51.798;21.588;2023-02-11T11:41:47;39.40;;;22.40;;
57790;SDS011;43621;51.798;21.588;2023-02-11T11:45:53;37.20;;;19.10;;
57790;SDS011;43621;51.798;21.588;2023-02-11T11:54:23;34.30;;;18.70;;
57790;SDS011;43621;51.798;21.588;2023-02-11T11:58:28;34.90;;;20.60;;
57790;SDS011;43621;51.798;21.588;2023-02-11T12:06:52;29.00;;;17.20;;
57790;SDS011;43621;51.798;21.588;2023-02-11T12:11:07;40.50;;;23.00;;
57790;SDS011;43621;51.798;21.588;2023-02-11T12:28:09;38.90;;;19.20;;
57790;SDS011;43621;51.798;21.588;2023-02-11T12:41:14;43.90;;;22.00;;
57790;SDS011;43621;51.798;21.588;2023-02-11T12:45:48;37.90;;;20.30;;
57790;SDS011;43621;51.798;21.588;2023-02-11T12:59:01;44.00;;;22.80;;
57790;SDS011;43621;51.798;21.588;2023-02-11T13:07:13;37.30;;;19.80;;
57790;SDS011;43621;51.798;21.588;2023-02-11T13:11:22;42.40;;;22.00;;
57790;SDS011;43621;51.798;21.588;2023-02-11T13:15:26;49.80;;;23.50;;
57790;SDS011;43621;51.798;21.588;2023-02-11T13:19:41;57.70;;;29.00;;
57790;SDS011;43621;51.798;21.588;2023-02-11T13:32:26;50.50;;;23.60;;
57790;SDS011;43621;51.798;21.588;2023-02-11T13:36:28;48.20;;;22.60;;
57790;SDS011;43621;51.798;21.588;2023-02-11T13:40:37;45.20;;;22.40;;
57790;SDS011;43621;51.798;21.588;2023-02-11T13:45:15;51.60;;;25.90;;
57790;SDS011;43621;51.798;21.588;2023-02-11T13:49:32;46.70;;;23.20;;
57790;SDS011;43621;51.798;21.588;2023-02-11T13:53:56;46.20;;;25.80;;
57790;SDS011;43621;51.798;21.588;2023-02-11T14:06:40;61.20;;;26.30;;
57790;SDS011;43621;51.798;21.588;2023-02-11T14:15:45;56.80;;;28.10;;
57790;SDS011;43621;51.798;21.588;2023-02-11T14:19:47;53.50;;;26.30;;
57790;SDS011;43621;51.798;21.588;2023-02-11T14:23:50;48.60;;;25.20;;
57790;SDS011;43621;51.798;21.588;2023-02-11T14:28:00;48.50;;;23.30;;
57790;SDS011;43621;51.798;21.588;2023-02-11T14:45:02;47.80;;;25.60;;
57790;SDS011;43621;51.798;21.588;2023-02-11T14:49:11;65.10;;;30.10;;
57790;SDS011;43621;51.798;21.588;2023-02-11T14:53:25;57.70;;;27.40;;
57790;SDS011;43621;51.798;21.588;2023-02-11T14:57:30;52.30;;;24.90;;
57790;SDS011;43621;51.798;21.588;2023-02-11T15:01:35;49.70;;;25.50;;
57790;SDS011;43621;51.798;21.588;2023-02-11T15:05:41;49.40;;;23.20;;
57790;SDS011;43621;51.798;21.588;2023-02-11T15:09:47;55.10;;;28.90;;
57790;SDS011;43621;51.798;21.588;2023-02-11T15:13:51;48.90;;;26.10;;
57790;SDS011;43621;51.798;21.588;2023-02-11T15:17:54;58.70;;;27.70;;
57790;SDS011;43621;51.798;21.588;2023-02-11T15:21:58;82.10;;;42.90;;
57790;SDS011;43621;51.798;21.588;2023-02-11T15:26:01;62.60;;;32.20;;
57790;SDS011;43621;51.798;21.588;2023-02-11T15:34:23;67.10;;;33.40;;
57790;SDS011;43621;51.798;21.588;2023-02-11T15:38:25;71.10;;;34.10;;
57790;SDS011;43621;51.798;21.588;2023-02-11T15:42:28;68.50;;;33.20;;
57790;SDS011;43621;51.798;21.588;2023-02-11T15:46:37;79.80;;;38.80;;
57790;SDS011;43621;51.798;21.588;2023-02-11T15:50:41;65.80;;;30.90;;
57790;SDS011;43621;51.798;21.588;2023-02-11T15:54:44;77.70;;;38.90;;
57790;SDS011;43621;51.798;21.588;2023-02-11T15:58:47;130.70;;;64.40;;
57790;SDS011;43621;51.798;21.588;2023-02-11T16:02:52;76.00;;;38.00;;
57790;SDS011;43621;51.798;21.588;2023-02-11T16:06:54;60.10;;;31.70;;
57790;SDS011;43621;51.798;21.588;2023-02-11T16:11:01;65.40;;;35.80;;
57790;SDS011;43621;51.798;21.588;2023-02-11T16:19:42;59.70;;;29.90;;
57790;SDS011;43621;51.798;21.588;2023-02-11T16:23:50;57.80;;;30.70;;
57790;SDS011;43621;51.798;21.588;2023-02-11T16:27:54;41.40;;;21.70;;
57790;SDS011;43621;51.798;21.588;2023-02-11T16:36:16;64.30;;;32.30;;
57790;SDS011;43621;51.798;21.588;2023-02-11T16:40:18;121.80;;;53.80;;
57790;SDS011;43621;51.798;21.588;2023-02-11T16:44:20;108.70;;;45.80;;
57790;SDS011;43621;51.798;21.588;2023-02-11T16:48:22;190.00;;;79.10;;
57790;SDS011;43621;51.798;21.588;2023-02-11T16:52:24;98.00;;;55.60;;
57790;SDS011;43621;51.798;21.588;2023-02-11T16:56:26;92.70;;;42.40;;
57790;SDS011;43621;51.798;21.588;2023-02-11T17:00:28;61.20;;;29.30;;
57790;SDS011;43621;51.798;21.588;2023-02-11T17:04:30;58.70;;;29.30;;
57790;SDS011;43621;51.798;21.588;2023-02-11T17:08:34;61.50;;;33.30;;
57790;SDS011;43621;51.798;21.588;2023-02-11T17:12:36;79.60;;;38.70;;
57790;SDS011;43621;51.798;21.588;2023-02-11T17:16:38;69.10;;;35.60;;
57790;SDS011;43621;51.798;21.588;2023-02-11T17:20:40;70.50;;;36.30;;
57790;SDS011;43621;51.798;21.588;2023-02-11T17:24:42;58.40;;;29.90;;
57790;SDS011;43621;51.798;21.588;2023-02-11T17:28:44;60.80;;;30.70;;
57790;SDS011;43621;51.798;21.588;2023-02-11T17:32:48;75.20;;;37.10;;
57790;SDS011;43621;51.798;21.588;2023-02-11T17:36:51;73.40;;;40.30;;
57790;SDS011;43621;51.798;21.588;2023-02-11T17:40:59;90.90;;;49.80;;
57790;SDS011;43621;51.798;21.588;2023-02-11T17:49:04;60.90;;;29.90;;
57790;SDS011;43621;51.798;21.588;2023-02-11T17:53:06;65.70;;;36.50;;
57790;SDS011;43621;51.798;21.588;2023-02-11T17:57:09;67.60;;;35.70;;
57790;SDS011;43621;51.798;21.588;2023-02-11T18:01:12;49.70;;;27.00;;
57790;SDS011;43621;51.798;21.588;2023-02-11T18:05:14;59.30;;;31.00;;
57790;SDS011;43621;51.798;21.588;2023-02-11T18:09:16;54.30;;;30.10;;
57790;SDS011;43621;51.798;21.588;2023-02-11T18:13:19;50.10;;;27.10;;
57790;SDS011;43621;51.798;21.588;2023-02-11T18:17:21;50.90;;;26.60;;
57790;SDS011;43621;51.798;21.588;2023-02-11T18:21:23;84.40;;;38.60;;
57790;SDS011;43621;51.798;21.588;2023-02-11T18:25:25;58.10;;;29.40;;
57790;SDS011;43621;51.798;21.588;2023-02-11T18:29:27;61.80;;;32.20;;
57790;SDS011;43621;51.798;21.588;2023-02-11T18:33:30;53.20;;;27.50;;
57790;SDS011;43621;51.798;21.588;2023-02-11T18:37:32;86.20;;;36.90;;
57790;SDS011;43621;51.798;21.588;2023-02-11T18:41:34;79.10;;;36.20;;
57790;SDS011;43621;51.798;21.588;2023-02-11T18:45:36;154.20;;;54.40;;
57790;SDS011;43621;51.798;21.588;2023-02-11T18:49:38;71.20;;;32.60;;
57790;SDS011;43621;51.798;21.588;2023-02-11T18:53:40;51.80;;;27.20;;
57790;SDS011;43621;51.798;21.588;2023-02-11T18:57:42;48.20;;;23.60;;
57790;SDS011;43621;51.798;21.588;2023-02-11T19:01:44;53.70;;;27.90;;
57790;SDS011;43621;51.798;21.588;2023-02-11T19:05:47;53.30;;;28.50;;
57790;SDS011;43621;51.798;21.588;2023-02-11T19:09:50;62.10;;;29.40;;
57790;SDS011;43621;51.798;21.588;2023-02-11T19:13:51;49.90;;;25.40;;
57790;SDS011;43621;51.798;21.588;2023-02-11T19:17:53;68.00;;;30.50;;
57790;SDS011;43621;51.798;21.588;2023-02-11T19:21:55;43.00;;;21.50;;
57790;SDS011;43621;51.798;21.588;2023-02-11T19:25:58;61.60;;;27.00;;
57790;SDS011;43621;51.798;21.588;2023-02-11T19:30:00;64.70;;;30.60;;
57790;SDS011;43621;51.798;21.588;2023-02-11T19:34:02;53.70;;;22.90;;
57790;SDS011;43621;51.798;21.588;2023-02-11T19:38:04;53.50;;;26.40;;
57790;SDS011;43621;51.798;21.588;2023-02-11T19:42:06;49.00;;;25.40;;
57790;SDS011;43621;51.798;21.588;2023-02-11T19:46:08;53.40;;;29.00;;
57790;SDS011;43621;51.798;21.588;2023-02-11T19:50:11;50.00;;;25.30;;
57790;SDS011;43621;51.798;21.588;2023-02-11T19:54:13;162.90;;;74.00;;
57790;SDS011;43621;51.798;21.588;2023-02-11T19:58:15;281.60;;;127.80;;
57790;SDS011;43621;51.798;21.588;2023-02-11T20:02:17;300.80;;;144.80;;
57790;SDS011;43621;51.798;21.588;2023-02-11T20:06:23;73.90;;;35.90;;
57790;SDS011;43621;51.798;21.588;2023-02-11T20:10:28;50.10;;;25.00;;
57790;SDS011;43621;51.798;21.588;2023-02-11T20:14:30;50.80;;;24.30;;
57790;SDS011;43621;51.798;21.588;2023-02-11T20:18:32;52.30;;;25.10;;
57790;SDS011;43621;51.798;21.588;2023-02-11T20:22:34;47.00;;;22.90;;
57790;SDS011;43621;51.798;21.588;2023-02-11T20:26:36;66.00;;;27.20;;
57790;SDS011;43621;51.798;21.588;2023-02-11T20:30:42;45.30;;;22.40;;
57790;SDS011;43621;51.798;21.588;2023-02-11T20:34:44;80.70;;;35.50;;
57790;SDS011;43621;51.798;21.588;2023-02-11T20:38:46;72.80;;;32.00;;
57790;SDS011;43621;51.798;21.588;2023-02-11T20:42:49;53.50;;;27.90;;
57790;SDS011;43621;51.798;21.588;2023-02-11T20:46:51;59.50;;;28.30;;
57790;SDS011;43621;51.798;21.588;2023-02-11T20:51:04;73.40;;;29.30;;
57790;SDS011;43621;51.798;21.588;2023-02-11T20:55:08;51.40;;;26.00;;
57790;SDS011;43621;51.798;21.588;2023-02-11T20:59:11;47.40;;;22.30;;
57790;SDS011;43621;51.798;21.588;2023-02-11T21:03:14;44.40;;;20.70;;
57790;SDS011;43621;51.798;21.588;2023-02-11T21:07:16;36.40;;;18.50;;
57790;SDS011;43621;51.798;21.588;2023-02-11T21:11:18;50.20;;;26.00;;
57790;SDS011;43621;51.798;21.588;2023-02-11T21:15:21;48.70;;;25.30;;
57790;SDS011;43621;51.798;21.588;2023-02-11T21:19:24;41.80;;;22.80;;
57790;SDS011;43621;51.798;21.588;2023-02-11T21:23:27;48.90;;;26.80;;
57790;SDS011;43621;51.798;21.588;2023-02-11T21:27:29;66.90;;;36.70;;
57790;SDS011;43621;51.798;21.588;2023-02-11T21:31:34;68.20;;;33.60;;
57790;SDS011;43621;51.798;21.588;2023-02-11T21:35:36;70.70;;;34.40;;
57790;SDS011;43621;51.798;21.588;2023-02-11T21:39:38;42.60;;;23.30;;
57790;SDS011;43621;51.798;21.588;2023-02-11T21:43:40;50.50;;;28.30;;
57790;SDS011;43621;51.798;21.588;2023-02-11T21:47:42;48.00;;;25.20;;
57790;SDS011;43621;51.798;21.588;2023-02-11T21:51:44;32.00;;;19.60;;
57790;SDS011;43621;51.798;21.588;2023-02-11T21:55:46;46.20;;;24.90;;
57790;SDS011;43621;51.798;21.588;2023-02-11T21:59:49;34.30;;;19.00;;
57790;SDS011;43621;51.798;21.588;2023-02-11T22:03:51;33.20;;;18.80;;
57790;SDS011;43621;51.798;21.588;2023-02-11T22:07:53;30.30;;;14.10;;
57790;SDS011;43621;51.798;21.588;2023-02-11T22:11:55;21.90;;;13.60;;
57790;SDS011;43621;51.798;21.588;2023-02-11T22:15:58;24.80;;;12.70;;
57790;SDS011;43621;51.798;21.588;2023-02-11T22:20:01;21.10;;;11.50;;
57790;SDS011;43621;51.798;21.588;2023-02-11T22:24:04;19.80;;;9.70;;
57790;SDS011;43621;51.798;21.588;2023-02-11T22:28:06;17.10;;;8.60;;
57790;SDS011;43621;51.798;21.588;2023-02-11T22:32:08;13.90;;;6.40;;
57790;SDS011;43621;51.798;21.588;2023-02-11T22:36:12;19.50;;;7.00;;
57790;SDS011;43621;51.798;21.588;2023-02-11T22:40:16;21.00;;;7.00;;
57790;SDS011;43621;51.798;21.588;2023-02-11T22:44:18;22.00;;;7.70;;
57790;SDS011;43621;51.798;21.588;2023-02-11T22:48:22;16.50;;;4.90;;
57790;SDS011;43621;51.798;21.588;2023-02-11T22:52:23;16.70;;;7.00;;
57790;SDS011;43621;51.798;21.588;2023-02-11T22:56:27;12.60;;;5.30;;
57790;SDS011;43621;51.798;21.588;2023-02-11T23:00:30;12.60;;;5.50;;
57790;SDS011;43621;51.798;21.588;2023-02-11T23:04:37;7.90;;;4.50;;
57790;SDS011;43621;51.798;21.588;2023-02-11T23:08:40;13.90;;;6.10;;
57790;SDS011;43621;51.798;21.588;2023-02-11T23:12:43;19.00;;;7.60;;
57790;SDS011;43621;51.798;21.588;2023-02-11T23:16:47;9.80;;;4.60;;
57790;SDS011;43621;51.798;21.588;2023-02-11T23:20:50;12.70;;;4.40;;
57790;SDS011;43621;51.798;21.588;2023-02-11T23:24:52;9.00;;;4.20;;
57790;SDS011;43621;51.798;21.588;2023-02-11T23:28:54;9.30;;;4.70;;
57790;SDS011;43621;51.798;21.588;2023-02-11T23:32:56;9.20;;;4.00;;
57790;SDS011;43621;51.798;21.588;2023-02-11T23:36:58;7.60;;;3.60;;
57790;SDS011;43621;51.798;21.588;2023-02-11T23:41:00;6.40;;;3.10;;
57790;SDS011;43621;51.798;21.588;2023-02-11T23:45:02;7.80;;;3.00;;
57790;SDS011;43621;51.798;21.588;2023-02-11T23:49:05;15.60;;;6.20;;
57790;SDS011;43621;51.798;21.588;2023-02-11T23:53:07;7.90;;;2.90;;
57790;SDS011;43621;51.798;21.588;2023-02-11T23:57:09;7.50;;;2.90;;
